Main page
METAR-TAF:

METAR-TAF

Airports :

Logan County Airport

Lincoln, Illinois, United States

latitude: 40-09-31N, longitude: 089-20-06W, elevation: 597 ft

Current weather observation

The report was made 17 minutes ago, at 11:15 UTC
Wind 14 mph from the East/Southeast
Temperature 63°F
Humidity 63%
Pressure 29.87 in. Hg
Visibility: 10 miles
Clear sky

METAR: KAAA 161115Z AUTO 11012KT 10SM CLR 17/10 A2987 RMK AO2 T01650098

Time: 06:32 (11:32 UTC)


TAF: missing

Weather observations and forecasts of more than 4000 airports (METAR and TAF reports).

The available stations are represented by yellow and red dots on the map.

Hover mouse over dot to see the name of the station.

Then click to see weather observations and forecasts.

To change the map : click on the green buttons with a black cross to zoom in, on the green button with a dash to zoom out, or on the green arrows for adjacent maps.


METAR-TAF: